Fort Wingate Army Depot, New Mexico
Current Conditions -  °F | °C
As of 6:53 PM on Friday 24 Oct 2014 (Local Time) from KGUP Reporting Station
Clear Clear  
Wind Chill: 67°   Ceiling: Unl
Heat Index: 67°   Visibility: 10mi
Dew Point: 29°   Wind: 10mph
Humidity: 24%   Direction: 30°NNE
Pressure: 30.31"   Gusts: NA
Location:  35.4315°N, 108.724°W
Report Text: KGUP 250053Z AUTO 03009KT 10SM CLR 19/M02 A3031 RMK AO2 SLP193 T01941017
Loading
Personal Weather Stations






























Interactive Weather Map
Tropical Storm Tracking
New forecast layout! Learn more

10-Day Weather Forecast

Advertisements
Track Severe Weather on mobile